createdAt,value
2019-03-19T00:01:32.668Z,100930.77
2019-03-19T00:06:39.949Z,100939.66
2019-03-19T00:11:46.877Z,100951.97
2019-03-19T00:16:53.875Z,100945.95
2019-03-19T00:22:00.802Z,100948.22
2019-03-19T00:27:07.805Z,100948.22
2019-03-19T00:32:14.741Z,100952.11
2019-03-19T00:37:23.520Z,100975.90
2019-03-19T00:42:30.459Z,100975.90
2019-03-19T00:47:37.530Z,100978.95
2019-03-19T00:52:44.467Z,100967.90
2019-03-19T00:57:51.482Z,100979.63
2019-03-19T01:02:58.705Z,100979.63
2019-03-19T01:08:05.788Z,100973.00
2019-03-19T01:13:12.871Z,100979.13
2019-03-19T01:18:19.789Z,100975.27
2019-03-19T01:23:26.907Z,100978.12
2019-03-19T01:28:33.916Z,100980.73
2019-03-19T01:33:40.833Z,100989.28
2019-03-19T01:38:47.781Z,100989.43
2019-03-19T01:43:55.041Z,100991.67
2019-03-19T01:49:01.985Z,100993.87
2019-03-19T01:54:08.901Z,101002.31
2019-03-19T01:59:15.849Z,101006.64
2019-03-19T02:04:22.751Z,101002.52
2019-03-19T02:09:29.695Z,101009.14
2019-03-19T02:14:36.695Z,101008.19
2019-03-19T02:19:43.620Z,101021.14
2019-03-19T02:24:50.806Z,101033.17
2019-03-19T02:29:57.988Z,101043.84
2019-03-19T02:35:05.796Z,101037.70
2019-03-19T02:40:12.769Z,101029.93
2019-03-19T02:45:19.752Z,101034.34
2019-03-19T02:50:26.705Z,101039.75
2019-03-19T02:55:33.618Z,101043.24
2019-03-19T03:00:41.027Z,101050.15
2019-03-19T03:05:47.952Z,101047.09
2019-03-19T03:10:55.318Z,101040.46
2019-03-19T03:16:02.445Z,101052.02
2019-03-19T03:21:09.515Z,101060.74
2019-03-19T03:26:16.460Z,101061.75
2019-03-19T03:31:23.404Z,101062.25
2019-03-19T03:36:30.599Z,101075.20
2019-03-19T03:41:38.688Z,101079.48
2019-03-19T03:46:45.623Z,101078.82
2019-03-19T03:51:52.626Z,101085.73
2019-03-19T03:57:02.454Z,101093.91
2019-03-19T04:02:08.285Z,101101.20
2019-03-19T04:07:15.297Z,101109.28
2019-03-19T04:12:22.230Z,101108.27
2019-03-19T04:17:29.176Z,101113.78
2019-03-19T04:22:36.136Z,101125.23
2019-03-19T04:27:43.134Z,101132.33
2019-03-19T04:32:50.182Z,101130.47
2019-03-19T04:37:57.160Z,101134.81
2019-03-19T04:43:04.089Z,101138.23
2019-03-19T04:53:32.856Z,101132.56
2019-03-19T04:58:39.786Z,101143.64
2019-03-19T05:03:46.790Z,101144.78
2019-03-19T05:08:53.704Z,101149.98
2019-03-19T05:14:00.652Z,101159.92
2019-03-19T05:19:07.572Z,101166.17
2019-03-19T05:24:14.683Z,101174.98
2019-03-19T05:29:22.573Z,101181.53
2019-03-19T05:34:29.557Z,101193.47
2019-03-19T05:39:36.580Z,101192.87
2019-03-19T05:44:43.497Z,101209.01
2019-03-19T05:49:50.448Z,101214.66
2019-03-19T05:54:57.421Z,101218.73
2019-03-19T06:00:32.717Z,101218.73
2019-03-19T06:05:39.647Z,101227.16
2019-03-19T06:17:10.774Z,101237.85
2019-03-19T06:22:17.715Z,101241.75
2019-03-19T06:27:24.641Z,101247.63
2019-03-19T06:32:31.582Z,101256.11
2019-03-19T06:37:38.522Z,101268.94
2019-03-19T06:42:45.471Z,101275.97
2019-03-19T06:47:52.520Z,101283.80
2019-03-19T06:52:59.475Z,101291.19
2019-03-19T06:58:10.821Z,101285.44
2019-03-19T07:03:15.034Z,101281.34
2019-03-19T07:08:22.060Z,101284.77
2019-03-19T07:13:29.015Z,101286.27
2019-03-19T07:18:35.933Z,101295.05
2019-03-19T07:23:42.942Z,101298.02
2019-03-19T07:28:49.891Z,101312.23
2019-03-19T07:33:56.952Z,101308.14
2019-03-19T07:39:05.358Z,101308.20
2019-03-19T07:44:12.299Z,101307.83
2019-03-19T07:49:19.252Z,101315.17
2019-03-19T07:54:26.198Z,101326.84
2019-03-19T07:59:33.331Z,101324.11
2019-03-19T08:04:40.323Z,101337.22
2019-03-19T08:09:47.281Z,101345.61
2019-03-19T08:14:54.237Z,101333.23
2019-03-19T08:20:01.250Z,101345.22
2019-03-19T08:25:08.966Z,101362.37
2019-03-19T08:30:16.908Z,101365.18
2019-03-19T08:35:23.822Z,101380.83
2019-03-19T08:40:30.802Z,101410.23
2019-03-19T08:45:37.775Z,101410.41
2019-03-19T08:50:44.749Z,101415.69
2019-03-19T08:55:52.757Z,101422.94
2019-03-19T09:00:59.700Z,101435.58
2019-03-19T09:06:07.702Z,101424.41
2019-03-19T09:11:14.740Z,101424.41
2019-03-19T09:16:21.817Z,101433.04
2019-03-19T09:21:28.822Z,101437.78
2019-03-19T09:26:35.781Z,101424.25
2019-03-19T09:31:42.895Z,101438.33
2019-03-19T09:36:57.283Z,101436.41
2019-03-19T09:41:58.549Z,101425.51
2019-03-19T09:47:05.568Z,101431.52
2019-03-19T09:52:12.723Z,101422.75
2019-03-19T09:57:19.814Z,101426.05
2019-03-19T10:02:26.748Z,101423.86
2019-03-19T10:07:33.675Z,101417.87
2019-03-19T10:12:41.666Z,101414.30
2019-03-19T10:17:48.593Z,101419.14
2019-03-19T10:22:55.559Z,101426.31
2019-03-19T10:28:02.550Z,101431.03
2019-03-19T10:33:09.536Z,101422.08
2019-03-19T10:38:16.561Z,101435.92
2019-03-19T10:43:23.502Z,101423.15
2019-03-19T10:48:30.523Z,101429.25
2019-03-19T10:53:37.546Z,101436.19
2019-03-19T10:58:44.504Z,101437.99
2019-03-19T11:03:51.512Z,101444.48
2019-03-19T11:08:59.730Z,101454.77
2019-03-19T11:14:06.634Z,101478.83
2019-03-19T11:19:14.539Z,101474.50
2019-03-19T11:24:22.050Z,101470.45
2019-03-19T11:29:28.974Z,101476.22
2019-03-19T11:34:35.916Z,101469.14
2019-03-19T11:39:43.027Z,101462.52
2019-03-19T11:44:50.222Z,101461.70
2019-03-19T11:49:57.270Z,101460.87
2019-03-19T11:55:05.301Z,101487.05
2019-03-19T12:00:19.531Z,101509.73
2019-03-19T12:05:27.179Z,101505.78
2019-03-19T12:10:34.140Z,101500.34
2019-03-19T12:15:41.149Z,101500.75
2019-03-19T12:20:48.066Z,101493.61
2019-03-19T12:25:55.412Z,101487.37
2019-03-19T12:31:02.345Z,101489.16
2019-03-19T12:36:09.365Z,101492.82
2019-03-19T12:41:16.318Z,101495.02
2019-03-19T12:46:23.310Z,101490.67
2019-03-19T12:51:30.312Z,101480.19
2019-03-19T12:56:37.250Z,101476.77
2019-03-19T13:01:44.698Z,101478.34
2019-03-19T13:06:51.611Z,101482.10
2019-03-19T13:11:58.538Z,101473.22
2019-03-19T13:17:05.549Z,101469.62
2019-03-19T13:22:12.665Z,101453.98
2019-03-19T13:27:19.689Z,101462.27
2019-03-19T13:32:28.304Z,101464.14
2019-03-19T13:37:35.553Z,101473.70
2019-03-19T13:42:42.708Z,101475.06
2019-03-19T13:47:49.753Z,101479.52
2019-03-19T13:52:56.812Z,101477.63
2019-03-19T13:58:03.885Z,101481.16
2019-03-19T14:03:10.813Z,101484.58
2019-03-19T14:08:18.067Z,101473.35
2019-03-19T14:13:25.154Z,101475.33
2019-03-19T14:18:32.139Z,101480.31
2019-03-19T14:23:39.062Z,101492.94
2019-03-19T14:28:46.497Z,101502.55
2019-03-19T14:33:53.413Z,101503.13
2019-03-19T14:39:01.631Z,101509.05
2019-03-19T14:44:10.144Z,101517.45
2019-03-19T14:49:17.086Z,101512.36
2019-03-19T14:54:24.188Z,101517.73
2019-03-19T14:59:31.237Z,101520.08
2019-03-19T15:04:38.174Z,101519.95
2019-03-19T15:09:46.113Z,101515.45
2019-03-19T15:14:53.221Z,101514.62
2019-03-19T15:20:00.391Z,101508.28
2019-03-19T15:25:07.973Z,101514.66
2019-03-19T15:30:16.706Z,101497.87
2019-03-19T15:35:23.697Z,101508.84
2019-03-19T15:40:30.714Z,101515.03
2019-03-19T15:45:37.855Z,101518.27
2019-03-19T15:50:44.799Z,101521.80
2019-03-19T15:55:51.746Z,101525.68
2019-03-19T16:00:59.156Z,101537.11
2019-03-19T16:06:06.175Z,101543.68
2019-03-19T16:11:14.171Z,101542.58
2019-03-19T16:16:21.103Z,101544.28
2019-03-19T16:21:28.070Z,101550.70
2019-03-19T16:26:35.091Z,101550.27
2019-03-19T16:31:50.659Z,101554.09
2019-03-19T16:36:50.707Z,101562.43
2019-03-19T16:41:57.624Z,101574.23
2019-03-19T16:47:04.676Z,101577.98
2019-03-19T16:52:11.690Z,101580.99
2019-03-19T16:57:19.581Z,101589.33
2019-03-19T17:02:26.564Z,101595.66
2019-03-19T17:07:33.508Z,101600.49
2019-03-19T17:12:42.005Z,101601.02
2019-03-19T17:17:49.154Z,101608.91
2019-03-19T17:22:56.105Z,101614.31
2019-03-19T17:28:03.033Z,101621.84
2019-03-19T17:33:11.082Z,101625.04
2019-03-19T17:38:18.006Z,101632.43
2019-03-19T17:43:24.932Z,101645.69
2019-03-19T17:48:31.967Z,101641.38
2019-03-19T17:53:38.910Z,101648.56
2019-03-19T17:58:45.859Z,101653.42
2019-03-19T18:03:52.781Z,101647.02
2019-03-19T18:08:59.730Z,101658.78
2019-03-19T18:14:06.774Z,101664.97
2019-03-19T18:19:13.718Z,101674.64
2019-03-19T18:24:22.883Z,101673.77
2019-03-19T18:29:29.316Z,101677.81
2019-03-19T18:34:36.280Z,101686.89
2019-03-19T18:39:44.271Z,101679.15
2019-03-19T18:44:51.199Z,101689.27
2019-03-19T18:49:58.197Z,101692.70
2019-03-19T18:55:06.143Z,101704.39
2019-03-19T19:00:14.870Z,101703.17
2019-03-19T19:05:21.880Z,101707.82
2019-03-19T19:10:28.903Z,101716.77
2019-03-19T19:15:35.812Z,101727.48
2019-03-19T19:20:42.831Z,101726.31
2019-03-19T19:25:49.842Z,101735.09
2019-03-19T19:30:56.740Z,101734.31
2019-03-19T19:36:03.690Z,101749.59
2019-03-19T19:41:10.618Z,101745.47
2019-03-19T19:46:17.601Z,101749.31
2019-03-19T19:51:25.595Z,101761.92
2019-03-19T19:56:32.526Z,101764.30
2019-03-19T20:01:39.465Z,101761.23
2019-03-19T20:06:46.441Z,101778.90
2019-03-19T20:11:53.753Z,101770.48
2019-03-19T20:17:01.923Z,101777.03
2019-03-19T20:22:08.939Z,101775.09
2019-03-19T20:27:15.964Z,101774.20
2019-03-19T20:32:23.169Z,101793.48
2019-03-19T20:37:30.095Z,101797.20
2019-03-19T20:42:37.910Z,101800.20
2019-03-19T20:47:45.067Z,101805.95
2019-03-19T20:52:52.094Z,101817.44
2019-03-19T20:57:59.121Z,101817.66
2019-03-19T21:03:06.148Z,101832.58
2019-03-19T21:08:13.081Z,101838.09
2019-03-19T21:13:20.295Z,101836.77
2019-03-19T21:18:27.289Z,101844.95
2019-03-19T21:23:34.209Z,101842.23
2019-03-19T21:28:41.302Z,101840.72
2019-03-19T21:33:51.337Z,101847.84
2019-03-19T21:38:57.416Z,101850.16
2019-03-19T21:44:04.512Z,101848.38
2019-03-19T21:49:11.513Z,101850.87
2019-03-19T21:54:18.440Z,101865.55
2019-03-19T21:59:30.830Z,101862.75
2019-03-19T22:04:38.707Z,101873.93
2019-03-19T22:09:45.636Z,101873.27
2019-03-19T22:14:53.718Z,101870.16
2019-03-19T22:20:13.167Z,101876.12
2019-03-19T22:25:20.173Z,101875.13
2019-03-19T22:30:27.097Z,101885.39
2019-03-19T22:35:34.230Z,101879.77
2019-03-19T22:40:41.226Z,101886.97
2019-03-19T22:45:49.201Z,101885.13
2019-03-19T22:50:56.169Z,101890.06
2019-03-19T22:56:03.198Z,101891.60
2019-03-19T23:01:10.774Z,101893.84
2019-03-19T23:06:18.778Z,101898.59
2019-03-19T23:11:25.815Z,101910.48
2019-03-19T23:16:34.026Z,101900.57
2019-03-19T23:21:40.964Z,101907.83
2019-03-19T23:27:06.203Z,101924.33
2019-03-19T23:32:13.149Z,101921.18
2019-03-19T23:43:13.878Z,101939.64
2019-03-19T23:53:42.862Z,101931.02
2019-03-19T23:58:49.896Z,101938.02
